Time;durP1;ratioP1;P1;durP2;ratioP2;P2;SDS_P1;SDS_P2;PMS_P1;PMS_P2;Temp;Humidity;BMP_temperature;BMP_pressure;BME280_temperature;BME280_humidity;BME280_pressure;Samples;Min_cycle;Max_cycle;Signal;HPM_P1;HPM_P2
2022/02/09 00:00:17;;;;;;;5.95;2.63;;;;;;;-1.11;98.84;95661.34;5047921;28;20509;-48
2022/02/09 00:03:04;;;;;;;3.75;2.70;;;;;;;-1.05;98.58;95671.00;5052858;28;20048;-48
2022/02/09 00:05:53;;;;;;;5.68;2.80;;;;;;;-1.10;99.09;95670.63;5050856;28;20535;-50
2022/02/09 00:08:21;;;;;;;7.65;3.78;;;;;;;-1.09;99.14;95662.03;5050990;28;20079;-48
2022/02/09 00:10:55;;;;;;;9.68;3.20;;;;;;;-1.14;99.38;95661.63;5051278;28;20095;-47
2022/02/09 00:16:24;;;;;;;4.57;2.78;;;;;;;-1.22;99.96;95664.06;5052450;28;20045;-45
2022/02/09 00:18:59;;;;;;;9.55;3.95;;;;;;;-1.22;100.00;95674.28;5052642;28;20048;-46
2022/02/09 01:57:08;;;;;;;10.55;4.93;;;;;;;-1.48;100.00;95669.72;5047080;28;20530;-51
2022/02/09 01:59:36;;;;;;;4.90;3.40;;;;;;;-1.37;100.00;95677.28;5059736;28;20068;-47
2022/02/09 02:02:03;;;;;;;6.03;4.05;;;;;;;-1.32;100.00;95688.84;5054706;28;20506;-49
2022/02/09 02:04:30;;;;;;;9.23;4.88;;;;;;;-1.28;100.00;95687.59;5059401;28;20426;-46
2022/02/09 02:06:57;;;;;;;8.93;4.88;;;;;;;-1.30;100.00;95676.72;5052549;28;20037;-48
2022/02/09 02:09:25;;;;;;;5.00;3.05;;;;;;;-1.20;100.00;95690.31;5057573;28;20063;-48
2022/02/09 02:12:02;;;;;;;7.25;3.00;;;;;;;-1.22;100.00;95689.63;5057826;28;20036;-48
2022/02/09 02:14:39;;;;;;;4.50;2.55;;;;;;;-1.14;100.00;95699.97;5058090;28;20045;-48
2022/02/09 02:17:20;;;;;;;5.95;3.15;;;;;;;-1.13;100.00;95698.22;5055694;28;20506;-47
2022/02/09 02:19:51;;;;;;;11.40;4.18;;;;;;;-1.07;100.00;95703.59;5056106;28;20048;-47
2022/02/09 02:35:36;;;;;;;13.98;4.60;;;;;;;-0.82;100.00;95714.19;5054965;28;20110;-48
2022/02/09 02:59:41;;;;;;;12.32;4.88;;;;;;;-0.46;100.00;95732.25;5056865;28;20040;-49
2022/02/09 03:13:26;;;;;;;7.65;3.90;;;;;;;-0.42;100.00;95728.47;5037460;28;20126;-47
2022/02/09 03:15:59;;;;;;;12.15;3.67;;;;;;;-0.40;100.00;95731.69;5054158;28;20037;-50
2022/02/09 03:18:55;;;;;;;8.93;3.58;;;;;;;-0.40;100.00;95731.69;5052631;28;20045;-48
2022/02/09 03:23:54;;;;;;;5.80;3.97;;;;;;;-0.35;100.00;95738.97;5049736;28;20122;-47
2022/02/09 03:26:43;;;;;;;9.27;3.70;;;;;;;-0.35;100.00;95739.75;5059664;28;20041;-46
2022/02/09 03:43:30;;;;;;;7.57;3.20;;;;;;;-0.18;100.00;95724.59;5055762;28;20494;-51
2022/02/09 03:48:49;;;;;;;14.48;5.05;;;;;;;-0.10;100.00;95722.13;5059215;28;20574;-47
2022/02/09 03:51:36;;;;;;;4.63;2.75;;;;;;;-0.13;100.00;95722.41;5055094;28;20139;-47
2022/02/09 03:59:23;;;;;;;13.82;5.53;;;;;;;-0.01;100.00;95726.41;5044809;28;20087;-47
2022/02/09 04:01:50;;;;;;;14.50;4.35;;;;;;;-0.01;100.00;95722.06;5054186;28;20387;-46
2022/02/09 04:04:17;;;;;;;10.65;4.25;;;;;;;-0.02;100.00;95724.78;5052649;28;20106;-47
2022/02/09 04:06:48;;;;;;;5.90;3.47;;;;;;;0.05;99.62;95730.94;5054727;28;20057;-47
2022/02/09 04:09:17;;;;;;;8.45;4.53;;;;;;;0.06;99.41;95727.44;5055081;28;20044;-47
2022/02/09 04:11:50;;;;;;;8.77;4.15;;;;;;;0.14;98.48;95724.16;5055530;28;20040;-48
2022/02/09 04:41:20;;;;;;;10.93;4.28;;;;;;;0.47;96.12;95720.16;5055448;28;20091;-51
2022/02/09 04:54:41;;;;;;;14.50;5.13;;;;;;;0.44;96.20;95719.66;5052441;28;20130;-51
2022/02/09 04:57:16;;;;;;;8.38;4.93;;;;;;;0.42;96.53;95722.34;5055883;28;20041;-51
2022/02/09 04:59:56;;;;;;;9.48;4.88;;;;;;;0.38;96.90;95710.78;5055020;28;20083;-47
2022/02/09 05:24:17;;;;;;;12.18;4.88;;;;;;;0.52;97.56;95728.22;5051339;28;20177;-52
2022/02/09 05:27:03;;;;;;;14.80;5.53;;;;;;;0.63;97.78;95749.47;5054582;28;20132;-46
2022/02/09 05:29:30;;;;;;;11.43;4.97;;;;;;;0.68;97.76;95742.13;5046316;28;20102;-50
2022/02/09 05:31:57;;;;;;;10.80;4.90;;;;;;;0.66;97.88;95738.91;5059457;28;22929;-48
2022/02/09 05:34:23;;;;;;;12.13;5.13;;;;;;;0.68;97.53;95729.31;5052103;28;20045;-47
2022/02/09 05:36:50;;;;;;;9.60;4.00;;;;;;;0.78;97.96;95753.13;5057809;28;20052;-46
2022/02/09 05:39:17;;;;;;;18.45;6.60;;;;;;;0.78;98.24;95758.25;5059073;28;20517;-47
2022/02/09 05:41:46;;;;;;;10.63;5.63;;;;;;;0.81;98.57;95768.22;5059111;28;20095;-48
2022/02/09 05:44:14;;;;;;;7.78;4.38;;;;;;;0.80;98.75;95766.59;5054416;28;20086;-46
2022/02/09 05:47:00;;;;;;;15.18;5.55;;;;;;;0.67;98.88;95745.66;5053163;28;20103;-50
2022/02/09 05:52:19;;;;;;;15.23;6.07;;;;;;;0.82;99.71;95767.25;5061234;28;20059;-50
2022/02/09 05:59:49;;;;;;;10.88;4.63;;;;;;;0.89;100.00;95781.09;5060093;28;20040;-50
2022/02/09 06:02:19;;;;;;;14.93;5.88;;;;;;;0.84;100.00;95762.00;5054700;28;20048;-48
2022/02/09 06:04:46;;;;;;;12.88;6.25;;;;;;;0.95;100.00;95780.53;5057309;28;20148;-49
2022/02/09 06:07:14;;;;;;;14.60;5.18;;;;;;;0.97;100.00;95782.13;5053681;28;20049;-48
2022/02/09 06:09:41;;;;;;;10.02;4.95;;;;;;;0.98;100.00;95791.47;5054741;28;20127;-47
2022/02/09 06:12:27;;;;;;;9.00;4.18;;;;;;;0.95;100.00;95790.81;5051766;28;20042;-51
2022/02/09 06:15:14;;;;;;;3.63;2.95;;;;;;;0.92;100.00;95796.22;5055267;28;20045;-51
2022/02/09 06:20:26;;;;;;;8.65;4.57;;;;;;;0.93;100.00;95797.81;5054973;28;20090;-52
2022/02/09 06:22:53;;;;;;;5.18;4.07;;;;;;;0.95;100.00;95801.06;5051314;28;20044;-49
2022/02/09 06:25:19;;;;;;;15.30;5.30;;;;;;;0.98;100.00;95796.59;5057153;28;20037;-48
2022/02/09 06:27:46;;;;;;;11.00;5.70;;;;;;;1.00;100.00;95799.81;5059755;28;20045;-49
2022/02/09 06:30:13;;;;;;;9.55;5.40;;;;;;;1.00;100.00;95813.44;5052421;28;20037;-50
2022/02/09 06:32:40;;;;;;;11.25;6.38;;;;;;;1.01;100.00;95809.09;5054468;28;20041;-47
2022/02/09 06:35:07;;;;;;;14.32;6.70;;;;;;;1.05;100.00;95810.44;5053533;28;20049;-46
2022/02/09 06:40:04;;;;;;;16.33;5.07;;;;;;;1.04;100.00;95812.19;5053130;28;20546;-46
2022/02/09 06:42:33;;;;;;;14.68;4.50;;;;;;;1.07;100.00;95813.66;5055364;28;20028;-47
2022/02/09 06:45:08;;;;;;;13.25;5.22;;;;;;;1.07;100.00;95813.66;5059881;28;20131;-50
2022/02/09 06:47:37;;;;;;;4.88;2.85;;;;;;;1.03;100.00;95822.59;5057849;28;20052;-46
2022/02/09 06:50:08;;;;;;;7.90;4.15;;;;;;;1.07;100.00;95813.66;5050473;28;20045;-49
2022/02/09 06:52:41;;;;;;;11.60;4.50;;;;;;;1.08;100.00;95815.25;5055217;28;20033;-51
2022/02/09 06:55:20;;;;;;;14.85;5.97;;;;;;;1.13;100.00;95823.31;5051604;28;20044;-47
2022/02/09 07:00:19;;;;;;;9.73;5.43;;;;;;;1.12;100.00;95816.59;5052374;28;20041;-48
2022/02/09 07:02:46;;;;;;;25.33;7.95;;;;;;;1.13;100.00;95815.63;5055243;28;20044;-49
2022/02/09 07:05:14;;;;;;;18.73;6.68;;;;;;;1.20;100.00;95821.78;5049769;28;20109;-51
2022/02/09 07:07:42;;;;;;;11.00;6.40;;;;;;;1.28;100.00;95816.72;5052986;28;20040;-48
2022/02/09 07:10:10;;;;;;;16.85;5.97;;;;;;;1.29;100.00;95823.44;5052098;28;20060;-50
2022/02/09 07:12:41;;;;;;;15.43;7.72;;;;;;;1.32;100.00;95810.31;5050570;28;20075;-48
2022/02/09 07:15:13;;;;;;;9.15;5.22;;;;;;;1.23;100.00;95803.53;5055234;28;20048;-49
2022/02/09 07:17:41;;;;;;;13.35;5.65;;;;;;;1.29;100.00;95810.63;5052779;28;20099;-48
2022/02/09 07:20:15;;;;;;;7.70;3.95;;;;;;;1.27;100.00;95817.66;5052372;28;20061;-48
2022/02/09 07:22:42;;;;;;;9.48;4.80;;;;;;;1.27;100.00;95820.22;5055730;28;20041;-51
2022/02/09 07:25:17;;;;;;;7.63;4.30;;;;;;;1.33;100.00;95823.97;5052274;28;20162;-47
2022/02/09 07:27:53;;;;;;;8.98;5.20;;;;;;;1.29;100.00;95807.25;5048007;28;20105;-46
2022/02/09 07:30:22;;;;;;;49.35;21.48;;;;;;;1.47;100.00;95825.19;5049500;28;20045;-50
2022/02/09 07:32:54;;;;;;;34.50;14.65;;;;;;;1.53;100.00;95820.28;5044137;28;20106;-47
2022/02/09 07:35:21;;;;;;;8.52;6.00;;;;;;;1.61;100.00;95827.22;5056728;28;20048;-50
2022/02/09 07:37:49;;;;;;;12.30;6.53;;;;;;;1.61;100.00;95821.28;5046354;28;20051;-48
2022/02/09 07:40:20;;;;;;;13.93;7.18;;;;;;;1.63;100.00;95834.78;5045491;28;20555;-49
2022/02/09 07:42:54;;;;;;;8.98;4.70;;;;;;;1.68;100.00;95835.94;5048717;28;20043;-49
2022/02/09 07:45:57;;;;;;;10.73;5.15;;;;;;;1.69;100.00;95829.84;5049608;28;20048;-48
2022/02/09 07:48:40;;;;;;;9.27;5.80;;;;;;;1.70;100.00;95831.44;5051909;28;20036;-47
2022/02/09 07:51:38;;;;;;;11.50;4.63;;;;;;;1.77;100.00;95846.28;5051851;28;20513;-48
2022/02/09 07:54:03;;;;;;;9.85;5.43;;;;;;;1.80;100.00;95838.25;5053973;28;20036;-48
2022/02/09 07:56:35;;;;;;;11.45;6.90;;;;;;;1.83;100.00;95835.38;5052345;28;20044;-53
2022/02/09 07:59:06;;;;;;;12.90;6.30;;;;;;;1.84;100.00;95834.44;5048140;28;20106;-51
2022/02/09 08:01:34;;;;;;;8.10;5.55;;;;;;;1.83;99.96;95840.50;5047232;28;20048;-49
2022/02/09 08:04:01;;;;;;;11.88;5.72;;;;;;;1.87;99.76;95847.78;5046972;28;20060;-48
2022/02/09 08:06:28;;;;;;;15.10;6.88;;;;;;;1.90;100.00;95838.94;5046881;28;20049;-50
2022/02/09 08:09:01;;;;;;;10.18;4.80;;;;;;;1.96;100.00;95830.63;5048166;28;20354;-52
2022/02/09 08:31:34;;;;;;;15.82;6.22;;;;;;;2.89;94.51;95826.47;5050547;28;20550;-50
2022/02/09 08:33:58;;;;;;;18.30;7.30;;;;;;;2.91;94.99;95825.34;5048242;28;20134;-47
2022/02/09 08:36:25;;;;;;;10.25;6.25;;;;;;;3.01;95.00;95825.22;5044051;28;20048;-48
2022/02/09 08:38:52;;;;;;;8.15;5.78;;;;;;;3.16;94.30;95810.72;5042100;28;20065;-52
2022/02/09 08:41:18;;;;;;;11.32;6.07;;;;;;;3.34;93.48;95815.72;5045889;28;20040;-50
2022/02/09 08:43:45;;;;;;;11.68;4.55;;;;;;;3.45;93.05;95828.25;5053294;28;20519;-52
2022/02/09 08:46:16;;;;;;;6.90;3.40;;;;;;;3.48;91.99;95840.03;5053054;28;20161;-49
2022/02/09 08:48:42;;;;;;;4.65;3.40;;;;;;;3.50;91.22;95829.56;5053846;28;20044;-53
2022/02/09 08:51:09;;;;;;;4.03;2.22;;;;;;;3.42;91.26;95827.78;5048668;28;20128;-51
2022/02/09 08:53:36;;;;;;;8.32;4.30;;;;;;;3.53;91.87;95824.06;5047833;28;20056;-50
2022/02/09 08:56:05;;;;;;;8.73;3.47;;;;;;;3.63;91.42;95819.56;5050108;28;20040;-51
2022/02/09 08:58:32;;;;;;;7.68;3.33;;;;;;;3.83;90.79;95830.31;5049778;28;20037;-48
2022/02/09 09:01:08;;;;;;;2.85;2.25;;;;;;;3.77;89.37;95836.13;5047300;28;20044;-51
2022/02/09 09:03:47;;;;;;;5.45;2.67;;;;;;;3.61;89.59;95827.44;5051691;28;20498;-53
2022/02/09 09:06:21;;;;;;;6.05;2.28;;;;;;;3.73;90.57;95829.72;5047861;28;22490;-48
2022/02/09 09:11:43;;;;;;;3.72;2.05;;;;;;;3.92;88.88;95838.84;5048887;28;20060;-47
2022/02/09 10:33:07;;;;;;;4.60;2.38;;;;;;;5.92;85.55;95796.78;5045428;28;20040;-53
2022/02/09 10:35:42;;;;;;;3.83;2.60;;;;;;;6.22;85.13;95781.28;5013894;28;1126585;-47
2022/02/09 10:38:23;;;;;;;6.45;3.40;;;;;;;6.27;84.08;95789.31;5047775;28;20070;-48
2022/02/09 10:40:53;;;;;;;6.68;4.15;;;;;;;6.38;84.19;95784.66;5052039;28;20057;-48
2022/02/09 10:43:32;;;;;;;9.40;3.40;;;;;;;6.34;83.43;95783.41;5048491;28;20098;-52
2022/02/09 10:46:16;;;;;;;4.07;2.42;;;;;;;6.05;84.72;95777.28;5052165;28;20052;-53
2022/02/09 10:49:08;;;;;;;6.03;2.13;;;;;;;6.13;84.51;95777.19;5050833;28;20410;-50
2022/02/09 10:54:12;;;;;;;4.03;2.63;;;;;;;6.64;84.85;95766.81;5052649;28;20122;-48
2022/02/09 10:56:41;;;;;;;6.07;3.20;;;;;;;6.51;83.47;95764.09;5052196;28;20510;-51
2022/02/09 10:59:12;;;;;;;4.40;3.33;;;;;;;6.49;83.15;95776.44;5054231;28;20068;-48
2022/02/09 11:01:40;;;;;;;7.07;3.50;;;;;;;6.41;82.87;95771.34;5053083;28;20483;-51
2022/02/09 11:04:08;;;;;;;4.90;2.40;;;;;;;6.13;84.36;95777.19;5050953;28;20056;-50
2022/02/09 11:06:38;;;;;;;7.00;3.53;;;;;;;6.46;86.45;95766.44;5053474;28;20060;-50
2022/02/09 11:09:08;;;;;;;5.40;3.17;;;;;;;6.65;84.63;95759.88;5048098;28;20392;-55
2022/02/09 11:11:38;;;;;;;2.90;2.58;;;;;;;6.52;83.64;95770.91;5054878;28;20040;-49
2022/02/09 11:14:07;;;;;;;3.55;1.77;;;;;;;6.32;84.10;95765.50;5053881;28;20040;-49
2022/02/09 11:16:35;;;;;;;6.60;3.10;;;;;;;6.34;85.64;95762.72;5048406;28;20533;-50
2022/02/09 11:19:03;;;;;;;5.07;3.10;;;;;;;6.31;84.84;95769.84;5047491;28;20107;-50
2022/02/09 11:21:33;;;;;;;3.78;2.13;;;;;;;6.13;84.96;95772.03;5047267;28;20506;-49
2022/02/09 11:24:08;;;;;;;5.88;2.58;;;;;;;5.90;86.56;95762.53;5051462;28;20531;-49
2022/02/09 11:40:48;;;;;;;4.20;2.40;;;;;;;5.48;87.75;95769.09;5047966;28;20060;-50
2022/02/09 11:43:43;;;;;;;5.32;2.83;;;;;;;5.37;89.04;95792.78;5047826;28;20060;-50
2022/02/09 11:52:19;;;;;;;18.58;5.38;;;;;;;5.22;89.59;95789.34;5049315;28;20045;-51
2022/02/09 12:01:18;;;;;;;10.45;4.60;;;;;;;5.13;91.61;95781.69;5025652;28;20041;-49
2022/02/09 12:09:41;;;;;;;7.53;3.88;;;;;;;5.07;92.28;95781.56;5050037;28;20087;-48
2022/02/09 12:12:14;;;;;;;11.25;4.93;;;;;;;5.12;92.31;95790.38;5046733;28;20451;-51
2022/02/09 12:15:13;;;;;;;6.15;3.45;;;;;;;5.06;92.19;95791.09;5050434;28;20036;-49
2022/02/09 12:25:45;;;;;;;4.03;2.88;;;;;;;5.01;93.02;95808.06;5054239;28;20048;-49
2022/02/09 12:28:24;;;;;;;12.18;4.20;;;;;;;4.92;93.69;95804.75;5046810;28;20033;-49
2022/02/09 12:31:06;;;;;;;6.57;4.78;;;;;;;4.87;94.00;95818.16;5050523;28;20048;-51
2022/02/09 12:33:33;;;;;;;7.30;4.05;;;;;;;4.91;94.91;95813.44;5053692;28;20045;-48
2022/02/09 12:36:33;;;;;;;6.45;3.35;;;;;;;4.95;95.40;95804.38;5044545;28;20087;-49
2022/02/09 12:39:04;;;;;;;5.85;3.90;;;;;;;5.01;94.82;95803.72;5034239;28;20064;-50
2022/02/09 12:41:31;;;;;;;14.35;3.83;;;;;;;5.06;94.55;95811.75;5045574;28;20465;-49
2022/02/09 12:44:01;;;;;;;6.43;3.92;;;;;;;5.03;94.37;95809.50;5046858;28;20064;-47
2022/02/09 12:46:34;;;;;;;5.95;4.28;;;;;;;4.94;94.23;95807.94;5046568;28;20446;-49
2022/02/09 12:49:13;;;;;;;5.15;3.28;;;;;;;4.92;94.43;95809.91;5043501;28;20051;-47
2022/02/09 12:51:47;;;;;;;7.35;4.22;;;;;;;4.91;95.40;95798.75;5046718;28;20049;-51
2022/02/09 12:54:16;;;;;;;5.85;4.28;;;;;;;4.96;95.33;95813.75;5048940;28;20847;-48
2022/02/09 12:56:51;;;;;;;8.10;4.18;;;;;;;4.88;95.19;95790.53;5060329;28;20113;-50
2022/02/09 12:59:20;;;;;;;9.30;5.60;;;;;;;4.94;96.06;95807.94;5045121;28;20041;-50
2022/02/09 13:01:56;;;;;;;5.05;3.33;;;;;;;4.90;95.56;95812.66;5042975;28;20477;-49
2022/02/09 13:04:27;;;;;;;8.10;4.18;;;;;;;4.90;96.53;95801.53;5050622;28;20045;-48
2022/02/09 13:06:56;;;;;;;8.18;5.45;;;;;;;4.91;96.59;95795.38;5045031;28;20059;-51
2022/02/09 13:09:25;;;;;;;6.72;3.95;;;;;;;4.91;96.77;95798.75;5045981;28;20053;-48
2022/02/09 13:11:52;;;;;;;5.50;2.97;;;;;;;4.85;96.63;95812.34;5049643;28;20489;-48
2022/02/09 13:14:33;;;;;;;9.88;5.57;;;;;;;4.76;97.21;95811.59;5048757;28;20477;-54
2022/02/09 13:17:21;;;;;;;7.75;5.57;;;;;;;4.71;98.49;95813.88;5045996;28;20037;-49
2022/02/09 13:25:41;;;;;;;4.45;3.28;;;;;;;4.66;99.20;95811.00;5054496;28;20582;-50
2022/02/09 14:59:09;;;;;;;10.77;6.40;;;;;;;3.51;100.00;95855.16;5047651;28;20060;-51
2022/02/09 15:01:44;;;;;;;10.15;6.90;;;;;;;3.50;100.00;95856.13;5048288;28;20674;-52
2022/02/09 15:04:28;;;;;;;21.23;10.52;;;;;;;3.48;100.00;95847.75;5050568;28;20438;-50
2022/02/09 15:12:17;;;;;;;11.73;6.40;;;;;;;3.34;100.00;95840.66;5049288;28;20052;-53
2022/02/09 15:21:13;;;;;;;14.75;7.53;;;;;;;3.43;100.00;95861.09;5049569;28;20430;-49
2022/02/09 15:22:59;;;;;;;13.38;7.82;;;;;;;3.45;100.00;95855.78;5044772;28;20057;-48
2022/02/09 15:25:32;;;;;;;11.23;6.03;;;;;;;3.38;100.00;95844.53;5048990;28;20036;-50
2022/02/09 15:28:01;;;;;;;16.63;9.57;;;;;;;3.44;100.00;95856.78;5044100;28;20045;-53
2022/02/09 15:30:34;;;;;;;12.20;7.18;;;;;;;3.45;100.00;95858.38;5045194;28;20808;-51
2022/02/09 15:33:03;;;;;;;19.25;11.18;;;;;;;3.44;100.00;95861.94;5043880;28;20040;-48
2022/02/09 15:35:34;;;;;;;17.52;9.02;;;;;;;3.39;100.00;95859.03;5048458;28;20064;-49
2022/02/09 15:38:08;;;;;;;22.02;11.07;;;;;;;3.43;100.00;95860.31;5046280;28;20418;-50
2022/02/09 15:40:48;;;;;;;16.88;10.30;;;;;;;3.40;100.00;95865.78;5048547;28;20571;-51
2022/02/09 15:56:59;;;;;;;18.02;8.60;;;;;;;3.09;100.00;95874.09;5048420;28;20486;-52
2022/02/09 16:11:00;;;;;;;;;;;;;;;2.96;100.00;95894.34;4985741;28;20053;-47
2022/02/09 16:24:32;;;;;;;36.97;18.85;;;;;;;2.96;100.00;95905.44;5049346;28;20041;-51
2022/02/09 16:46:23;;;;;;;15.60;7.47;;;;;;;3.00;100.00;95927.31;5047137;28;20060;-50
2022/02/09 16:51:22;;;;;;;16.65;9.05;;;;;;;2.96;100.00;95930.38;5053301;28;20064;-48
2022/02/09 16:54:07;;;;;;;17.17;9.30;;;;;;;2.94;100.00;95932.31;5044706;28;20496;-47
2022/02/09 17:18:50;;;;;;;24.45;11.45;;;;;;;2.58;100.00;95933.28;5058673;28;20609;-50
2022/02/09 17:21:19;;;;;;;27.10;13.13;;;;;;;2.66;100.00;95955.66;5054994;28;20132;-50
2022/02/09 17:23:48;;;;;;;21.83;11.43;;;;;;;2.60;100.00;95956.28;5056615;28;20052;-49
2022/02/09 17:26:16;;;;;;;22.98;12.65;;;;;;;2.56;100.00;95965.28;5052838;28;20118;-49
2022/02/09 17:28:45;;;;;;;19.75;10.48;;;;;;;2.46;100.00;95961.03;5055159;28;20067;-49
2022/02/09 17:33:57;;;;;;;19.17;11.18;;;;;;;2.37;100.00;95961.94;5055883;28;20044;-50
2022/02/09 17:36:59;;;;;;;18.58;11.27;;;;;;;2.30;100.00;95966.06;5054234;28;20072;-50
2022/02/09 17:53:21;;;;;;;18.52;9.75;;;;;;;2.13;100.00;95949.75;5053732;28;20438;-47
2022/02/09 17:55:54;;;;;;;24.40;12.43;;;;;;;1.91;100.00;95974.19;5049533;28;20090;-51
2022/02/09 17:58:35;;;;;;;25.55;12.65;;;;;;;1.88;100.00;95989.88;5058000;28;20048;-50
2022/02/09 18:01:03;;;;;;;23.23;12.85;;;;;;;1.88;100.00;95998.38;5048732;28;20068;-48
2022/02/09 18:03:30;;;;;;;24.58;13.82;;;;;;;1.87;100.00;96001.94;5058043;28;20057;-48
2022/02/09 18:06:09;;;;;;;31.83;16.08;;;;;;;1.88;100.00;95987.31;5052829;28;20036;-48
2022/02/09 18:08:45;;;;;;;55.10;18.50;;;;;;;1.78;100.00;95978.88;5056653;28;20500;-51
2022/02/09 18:11:27;;;;;;;77.22;23.60;;;;;;;1.77;100.00;95990.13;5052239;28;20052;-48
2022/02/09 18:30:53;;;;;;;79.10;27.15;;;;;;;1.71;100.00;96002.59;5045855;28;20071;-53
2022/02/09 18:34:03;;;;;;;40.90;19.73;;;;;;;1.71;100.00;96002.59;5048677;28;20083;-49
2022/02/09 18:44:53;;;;;;;42.65;19.40;;;;;;;1.72;100.00;96014.47;5026487;28;20084;-50
2022/02/09 19:03:36;;;;;;;29.98;15.02;;;;;;;1.45;100.00;96011.94;5049595;28;20548;-47
2022/02/09 19:06:18;;;;;;;41.88;17.92;;;;;;;1.43;100.00;96013.88;5048829;28;20135;-47
2022/02/09 19:14:27;;;;;;;23.80;13.18;;;;;;;1.40;100.00;96019.28;5051259;28;20052;-49
2022/02/09 19:17:08;;;;;;;27.27;14.52;;;;;;;1.32;100.00;96023.38;5048395;28;20048;-49
2022/02/09 19:19:58;;;;;;;28.77;15.55;;;;;;;1.28;100.00;96032.31;5047870;28;20174;-48
2022/02/09 19:30:53;;;;;;;65.53;35.65;;;;;;;0.94;100.00;96025.19;5030473;28;20095;-49
2022/02/09 19:47:05;;;;;;;52.38;27.27;;;;;;;0.60;100.00;96062.56;5048362;28;20045;-48
2022/02/09 19:54:59;;;;;;;47.80;25.92;;;;;;;0.44;100.00;96063.13;5045267;28;20040;-51
2022/02/09 19:57:27;;;;;;;41.40;19.88;;;;;;;0.44;100.00;96063.91;5044873;28;20041;-47
2022/02/09 19:59:56;;;;;;;48.58;21.42;;;;;;;0.37;100.00;96063.66;5045771;28;20068;-47
2022/02/09 20:02:25;;;;;;;36.75;18.00;;;;;;;0.31;100.00;96053.97;5044725;28;20052;-48
2022/02/09 20:04:55;;;;;;;39.28;18.20;;;;;;;0.29;100.00;96070.41;5044270;28;20045;-49
2022/02/09 20:07:24;;;;;;;35.67;16.77;;;;;;;0.18;100.00;96064.50;5046062;28;20052;-50
2022/02/09 20:10:11;;;;;;;32.25;17.75;;;;;;;0.12;100.00;96067.59;5045450;28;20049;-47
2022/02/09 20:12:46;;;;;;;42.03;17.85;;;;;;;0.12;100.00;96070.16;5049911;28;22159;-50
2022/02/09 20:15:16;;;;;;;53.05;24.88;;;;;;;0.00;100.00;96068.69;5052897;28;20055;-49
2022/02/09 20:17:45;;;;;;;68.53;35.00;;;;;;;0.01;100.00;96072.03;5056909;28;20040;-49
2022/02/09 20:20:21;;;;;;;52.97;26.38;;;;;;;-0.01;100.00;96069.63;5050082;28;20497;-48
2022/02/09 20:22:49;;;;;;;72.10;33.95;;;;;;;-0.06;100.00;96076.88;5053967;28;21506;-48
2022/02/09 20:25:18;;;;;;;76.13;33.05;;;;;;;-0.10;100.00;96078.09;5051566;28;20056;-48
2022/02/09 20:27:46;;;;;;;45.60;22.23;;;;;;;-0.13;100.00;96080.94;5053625;28;20057;-51
2022/02/09 20:30:17;;;;;;;39.17;18.45;;;;;;;-0.19;100.00;96082.28;5052097;28;20376;-50
2022/02/09 20:32:50;;;;;;;48.10;23.08;;;;;;;-0.21;100.00;96084.97;5054132;28;20057;-48
2022/02/09 20:35:18;;;;;;;38.40;16.17;;;;;;;-0.20;100.00;96080.66;5049130;28;20053;-50
2022/02/09 20:37:49;;;;;;;38.78;20.35;;;;;;;-0.26;100.00;96079.44;5054585;28;20040;-47
2022/02/09 20:40:26;;;;;;;29.10;14.93;;;;;;;-0.25;100.00;96081.06;5054123;28;20073;-49
2022/02/09 20:43:01;;;;;;;89.70;32.72;;;;;;;-0.24;100.00;96080.09;5055953;28;20049;-48
2022/02/09 20:45:42;;;;;;;89.53;36.03;;;;;;;-0.21;100.00;96074.72;5053581;28;20483;-46
2022/02/09 20:48:14;;;;;;;84.07;27.83;;;;;;;-0.18;100.00;96083.06;5056070;28;20045;-47
2022/02/09 20:50:43;;;;;;;39.90;17.17;;;;;;;-0.15;100.00;96085.38;5055169;28;20045;-48
2022/02/09 20:53:10;;;;;;;55.40;20.90;;;;;;;-0.08;100.00;96078.78;5056560;28;20054;-47
2022/02/09 20:55:37;;;;;;;64.38;22.17;;;;;;;-0.09;100.00;96061.78;5051592;28;20044;-47
2022/02/09 20:58:04;;;;;;;51.00;21.60;;;;;;;0.07;100.00;96087.66;5058522;28;20048;-47
2022/02/09 21:00:55;;;;;;;37.58;14.57;;;;;;;0.12;100.00;96075.25;5060111;28;20044;-47
2022/02/09 21:09:18;;;;;;;30.10;13.13;;;;;;;0.06;100.00;96080.94;5054965;28;20498;-47
2022/02/09 21:15:12;;;;;;;25.40;13.20;;;;;;;-0.04;100.00;96086.06;5025146;28;20133;-48
2022/02/09 21:18:13;;;;;;;23.73;12.32;;;;;;;-0.11;100.00;96081.59;5024941;28;20454;-48
2022/02/09 21:23:29;;;;;;;20.63;8.40;;;;;;;-0.27;100.00;96080.38;5057666;28;20411;-47
2022/02/09 22:56:31;;;;;;;36.60;18.25;;;;;;;-0.71;100.00;96077.31;5049172;28;20103;-48
2022/02/09 22:59:00;;;;;;;33.30;15.80;;;;;;;-0.75;100.00;96080.28;5057283;28;20048;-48
2022/02/09 23:02:05;;;;;;;22.67;11.23;;;;;;;-0.69;100.00;96070.31;5057571;28;20048;-49
